createdAt,value
2018-07-20T00:01:55.181Z,5.30
2018-07-20T00:04:22.808Z,4.60
2018-07-20T00:06:50.505Z,5.73
2018-07-20T00:09:18.093Z,7.73
2018-07-20T00:11:45.715Z,7.93
2018-07-20T00:14:13.353Z,8.27
2018-07-20T00:16:41.088Z,6.10
2018-07-20T00:19:08.653Z,5.80
2018-07-20T00:21:36.256Z,5.57
2018-07-20T00:24:03.880Z,5.53
2018-07-20T00:26:31.517Z,7.13
2018-07-20T00:28:59.163Z,4.67
2018-07-20T00:31:26.793Z,4.53
2018-07-20T00:33:54.281Z,6.67
2018-07-20T00:36:21.897Z,4.47
2018-07-20T00:38:49.499Z,7.07
2018-07-20T00:41:17.104Z,10.97
2018-07-20T00:43:44.715Z,11.07
2018-07-20T00:46:12.363Z,5.73
2018-07-20T00:48:40.012Z,4.90
2018-07-20T00:51:07.628Z,4.60
2018-07-20T00:53:35.252Z,5.00
2018-07-20T00:56:02.916Z,5.47
2018-07-20T00:58:30.550Z,6.57
2018-07-20T01:00:58.241Z,7.07
2018-07-20T01:03:25.852Z,6.93
2018-07-20T01:05:53.473Z,7.90
2018-07-20T01:08:21.070Z,7.13
2018-07-20T01:10:48.709Z,6.47
2018-07-20T01:13:16.335Z,5.00
2018-07-20T01:15:43.937Z,4.63
2018-07-20T01:18:11.564Z,6.27
2018-07-20T01:20:39.236Z,5.23
2018-07-20T01:23:06.871Z,5.93
2018-07-20T01:25:34.494Z,6.33
2018-07-20T01:28:02.090Z,4.97
2018-07-20T01:30:29.710Z,6.47
2018-07-20T01:32:57.345Z,7.87
2018-07-20T01:35:24.971Z,9.47
2018-07-20T01:37:52.564Z,5.20
2018-07-20T01:40:20.177Z,7.03
2018-07-20T01:42:47.809Z,8.03
2018-07-20T01:45:15.450Z,6.97
2018-07-20T01:47:43.036Z,6.10
2018-07-20T01:50:10.658Z,9.37
2018-07-20T01:52:38.257Z,5.53
2018-07-20T01:55:05.930Z,5.07
2018-07-20T01:57:33.463Z,5.77
2018-07-20T02:00:01.110Z,7.43
2018-07-20T02:02:28.769Z,6.80
2018-07-20T02:04:56.415Z,7.73
2018-07-20T02:07:24.173Z,6.73
2018-07-20T02:09:51.773Z,12.17
2018-07-20T02:12:19.472Z,6.57
2018-07-20T02:14:47.056Z,5.77
2018-07-20T02:17:14.650Z,6.20
2018-07-20T02:19:42.300Z,6.47
2018-07-20T02:22:09.904Z,6.23
2018-07-20T02:24:37.542Z,7.43
2018-07-20T02:27:05.171Z,8.03
2018-07-20T02:29:32.905Z,5.43
2018-07-20T02:32:00.485Z,6.33
2018-07-20T02:34:28.087Z,8.47
2018-07-20T02:36:55.723Z,6.67
2018-07-20T02:39:23.354Z,6.77
2018-07-20T02:41:50.968Z,6.87
2018-07-20T02:44:18.621Z,7.77
2018-07-20T02:46:46.248Z,6.83
2018-07-20T02:49:13.844Z,12.20
2018-07-20T02:51:41.496Z,9.87
2018-07-20T02:54:09.100Z,8.63
2018-07-20T02:59:11.177Z,6.60
2018-07-20T03:01:38.784Z,11.83
2018-07-20T03:04:06.425Z,8.00
2018-07-20T03:06:34.016Z,8.53
2018-07-20T03:09:01.679Z,14.63
2018-07-20T03:11:29.276Z,6.57
2018-07-20T03:13:56.919Z,11.60
2018-07-20T03:16:24.549Z,13.43
2018-07-20T03:18:52.177Z,6.83
2018-07-20T03:21:19.788Z,8.33
2018-07-20T03:23:47.441Z,7.30
2018-07-20T03:26:15.066Z,7.50
2018-07-20T03:28:42.720Z,8.00
2018-07-20T03:31:10.297Z,8.97
2018-07-20T03:33:37.897Z,8.87
2018-07-20T03:36:05.554Z,11.17
2018-07-20T03:38:33.155Z,8.20
2018-07-20T03:41:00.765Z,9.73
2018-07-20T03:43:28.375Z,9.73
2018-07-20T03:45:55.982Z,11.30
2018-07-20T03:48:23.588Z,9.00
2018-07-20T03:50:51.219Z,7.73
2018-07-20T03:53:18.823Z,13.67
2018-07-20T03:55:46.477Z,11.57
2018-07-20T03:58:14.106Z,8.80
2018-07-20T04:00:41.773Z,9.60
2018-07-20T04:03:09.397Z,9.30
2018-07-20T04:05:37.052Z,8.50
2018-07-20T04:08:04.729Z,11.03
2018-07-20T04:10:32.372Z,10.37
2018-07-20T04:12:59.996Z,13.43
2018-07-20T04:15:27.617Z,11.47
2018-07-20T04:17:55.259Z,9.07
2018-07-20T04:20:22.883Z,11.20
2018-07-20T04:22:50.520Z,14.33
2018-07-20T04:25:18.142Z,10.47
2018-07-20T04:27:45.888Z,8.63
2018-07-20T04:30:14.274Z,9.90
2018-07-20T04:32:42.406Z,8.73
2018-07-20T04:35:10.904Z,10.40
2018-07-20T04:37:38.567Z,10.80
2018-07-20T04:40:06.561Z,10.47
2018-07-20T04:42:34.707Z,9.03
2018-07-20T04:45:02.389Z,10.57
2018-07-20T04:47:30.008Z,10.17
2018-07-20T04:49:57.693Z,15.57
2018-07-20T04:52:25.298Z,10.87
2018-07-20T04:54:52.962Z,11.60
2018-07-20T04:57:20.616Z,9.87
2018-07-20T04:59:48.325Z,13.77
2018-07-20T05:02:15.972Z,12.57
2018-07-20T05:04:43.569Z,11.80
2018-07-20T05:07:11.194Z,12.50
2018-07-20T05:09:38.798Z,16.57
2018-07-20T05:12:06.463Z,16.43
2018-07-20T05:14:34.080Z,11.73
2018-07-20T05:17:01.731Z,17.73
2018-07-20T05:19:29.270Z,12.40
2018-07-20T05:21:56.965Z,13.57
2018-07-20T05:24:24.622Z,13.03
2018-07-20T05:26:52.276Z,18.87
2018-07-20T05:29:19.908Z,14.70
2018-07-20T05:31:47.541Z,25.73
2018-07-20T05:34:15.162Z,14.60
2018-07-20T05:36:42.820Z,14.67
2018-07-20T05:39:11.432Z,16.83
2018-07-20T05:41:39.187Z,22.40
2018-07-20T05:44:07.009Z,15.27
2018-07-20T05:46:34.905Z,15.60
2018-07-20T05:49:02.560Z,22.77
2018-07-20T05:51:30.185Z,25.17
2018-07-20T05:53:58.009Z,20.37
2018-07-20T05:56:25.752Z,23.13
2018-07-20T05:58:53.367Z,21.47
2018-07-20T06:01:21.167Z,33.93
2018-07-20T06:03:48.800Z,25.30
2018-07-20T06:06:16.324Z,19.27
2018-07-20T06:08:44.110Z,20.60
2018-07-20T06:11:11.742Z,27.87
2018-07-20T06:13:39.361Z,23.73
2018-07-20T06:16:07.164Z,26.20
2018-07-20T06:18:34.937Z,29.67
2018-07-20T06:21:02.602Z,20.63
2018-07-20T06:23:30.260Z,25.67
2018-07-20T06:25:57.922Z,27.77
2018-07-20T06:28:25.554Z,21.07
2018-07-20T06:30:53.244Z,19.80
2018-07-20T06:33:20.866Z,14.40
2018-07-20T06:35:48.500Z,15.47
2018-07-20T06:38:16.130Z,17.47
2018-07-20T06:40:43.827Z,14.60
2018-07-20T06:43:11.410Z,15.27
2018-07-20T06:45:39.089Z,11.60
2018-07-20T06:48:07.057Z,20.10
2018-07-20T06:50:34.697Z,11.53
2018-07-20T06:53:02.375Z,11.77
2018-07-20T06:55:30.018Z,14.27
2018-07-20T06:57:57.664Z,17.60
2018-07-20T07:00:25.328Z,15.03
2018-07-20T07:02:52.931Z,15.87
2018-07-20T07:05:20.592Z,19.27
2018-07-20T07:07:48.221Z,16.93
2018-07-20T07:10:15.858Z,19.10
2018-07-20T07:12:43.567Z,14.63
2018-07-20T07:15:11.234Z,13.30
2018-07-20T07:17:38.903Z,13.97
2018-07-20T07:20:06.542Z,13.70
2018-07-20T07:22:34.256Z,13.67
2018-07-20T07:25:01.865Z,14.13
2018-07-20T07:27:29.572Z,14.07
2018-07-20T07:29:57.218Z,13.03
2018-07-20T07:32:24.897Z,13.33
2018-07-20T07:34:52.524Z,13.50
2018-07-20T07:37:20.152Z,12.77
2018-07-20T07:39:47.844Z,13.87
2018-07-20T07:42:15.689Z,13.80
2018-07-20T07:44:43.191Z,14.33
2018-07-20T07:47:11.141Z,13.08
2018-07-20T07:49:38.829Z,15.63
2018-07-20T07:52:06.882Z,14.98
2018-07-20T07:54:34.569Z,12.82
2018-07-20T07:57:02.225Z,16.27
2018-07-20T07:59:29.977Z,17.98
2018-07-20T08:01:57.604Z,22.00
2018-07-20T08:04:25.225Z,19.17
2018-07-20T08:06:52.856Z,19.00
2018-07-20T08:09:20.499Z,22.48
2018-07-20T08:11:48.178Z,20.90
2018-07-20T08:15:19.124Z,21.57
2018-07-20T08:17:46.768Z,21.33
2018-07-20T08:20:14.452Z,20.97
2018-07-20T08:22:42.093Z,22.20
2018-07-20T08:25:09.825Z,25.27
2018-07-20T08:27:37.459Z,21.55
2018-07-20T08:30:05.140Z,21.65
2018-07-20T08:32:32.693Z,19.42
2018-07-20T08:35:00.304Z,23.47
2018-07-20T08:37:27.890Z,27.90
2018-07-20T08:39:55.523Z,25.72
2018-07-20T08:42:23.197Z,23.02
2018-07-20T08:44:50.834Z,19.35
2018-07-20T08:47:18.457Z,18.07
2018-07-20T08:49:46.163Z,20.05
2018-07-20T08:52:13.838Z,21.87
2018-07-20T08:54:41.452Z,20.12
2018-07-20T08:57:09.200Z,14.25
2018-07-20T08:59:37.169Z,13.53
2018-07-20T09:02:04.838Z,16.07
2018-07-20T09:04:32.478Z,17.87
2018-07-20T09:07:00.159Z,16.25
2018-07-20T09:09:27.765Z,14.33
2018-07-20T09:11:55.435Z,11.55
2018-07-20T09:14:23.120Z,14.83
2018-07-20T09:16:50.753Z,10.78
2018-07-20T09:19:18.378Z,12.07
2018-07-20T09:21:46.037Z,10.48
2018-07-20T09:24:13.553Z,10.43
2018-07-20T09:26:41.156Z,9.73
2018-07-20T09:29:08.830Z,11.90
2018-07-20T09:31:36.483Z,10.00
2018-07-20T09:34:04.190Z,11.20
2018-07-20T09:36:31.792Z,12.37
2018-07-20T09:38:59.391Z,16.67
2018-07-20T09:41:27.046Z,11.50
2018-07-20T09:43:54.726Z,12.00
2018-07-20T09:46:22.342Z,11.40
2018-07-20T09:48:50.059Z,11.70
2018-07-20T09:51:17.654Z,11.95
2018-07-20T09:53:45.308Z,12.70
2018-07-20T09:56:13.078Z,12.23
2018-07-20T09:58:40.592Z,15.48
2018-07-20T10:01:08.296Z,12.25
2018-07-20T10:03:35.951Z,11.95
2018-07-20T10:06:03.736Z,10.55
2018-07-20T10:08:31.388Z,10.90
2018-07-20T10:10:59.063Z,12.78
2018-07-20T10:13:26.731Z,10.82
2018-07-20T10:15:54.369Z,14.90
2018-07-20T10:18:22.015Z,12.70
2018-07-20T10:20:49.655Z,13.93
2018-07-20T10:23:17.293Z,11.03
2018-07-20T10:25:44.992Z,12.88
2018-07-20T10:28:12.570Z,12.00
2018-07-20T10:30:40.243Z,14.05
2018-07-20T10:33:07.888Z,11.80
2018-07-20T10:35:35.476Z,10.48
2018-07-20T10:38:03.230Z,10.43
2018-07-20T10:40:30.944Z,15.25
2018-07-20T10:42:58.808Z,11.50
2018-07-20T10:45:26.716Z,15.18
2018-07-20T10:47:54.401Z,13.58
2018-07-20T10:50:22.053Z,12.10
2018-07-20T10:52:49.687Z,12.75
2018-07-20T10:55:17.937Z,14.00
2018-07-20T10:57:45.804Z,14.20
2018-07-20T11:00:13.469Z,11.65
2018-07-20T11:02:41.093Z,10.18
2018-07-20T11:05:08.833Z,9.95
2018-07-20T11:07:36.492Z,10.45
2018-07-20T11:10:04.356Z,10.28
2018-07-20T11:12:31.911Z,9.85
2018-07-20T11:14:59.556Z,10.65
2018-07-20T11:17:27.165Z,9.13
2018-07-20T11:19:54.788Z,10.50
2018-07-20T11:22:22.436Z,13.50
2018-07-20T11:24:50.067Z,10.88
2018-07-20T11:27:19.474Z,10.05
2018-07-20T11:29:47.175Z,11.00
2018-07-20T11:32:14.957Z,12.58
2018-07-20T11:34:42.673Z,12.23
2018-07-20T11:37:10.305Z,10.18
2018-07-20T11:39:37.979Z,10.82
2018-07-20T11:42:05.632Z,11.50
2018-07-20T11:44:33.267Z,10.18
2018-07-20T11:47:00.877Z,10.82
2018-07-20T11:49:28.567Z,11.88
2018-07-20T11:51:56.200Z,12.33
2018-07-20T11:54:23.801Z,10.88
2018-07-20T11:56:51.457Z,9.00
2018-07-20T11:59:19.046Z,9.28
2018-07-20T12:01:46.761Z,9.68
2018-07-20T12:04:14.400Z,9.13
2018-07-20T12:06:42.040Z,8.98
2018-07-20T12:09:11.049Z,8.30
2018-07-20T12:11:38.877Z,9.78
2018-07-20T12:14:06.557Z,9.03
2018-07-20T12:16:34.221Z,8.30
2018-07-20T12:19:01.907Z,8.35
2018-07-20T12:21:29.553Z,8.10
2018-07-20T12:23:57.221Z,8.93
2018-07-20T12:26:24.868Z,7.92
2018-07-20T12:28:52.503Z,7.80
2018-07-20T12:31:20.142Z,11.15
2018-07-20T12:33:47.805Z,6.47
2018-07-20T12:36:15.460Z,9.15
2018-07-20T12:38:43.117Z,13.70
2018-07-20T12:41:11.047Z,7.30
2018-07-20T12:43:38.668Z,8.58
2018-07-20T12:46:06.344Z,8.63
2018-07-20T12:48:33.965Z,8.93
2018-07-20T12:51:01.653Z,7.70
2018-07-20T12:53:29.360Z,7.72
2018-07-20T12:55:57.004Z,7.97
2018-07-20T12:58:24.725Z,12.78
2018-07-20T13:00:52.319Z,8.33
2018-07-20T13:03:19.951Z,6.85
2018-07-20T13:05:47.611Z,8.00
2018-07-20T13:08:15.260Z,6.28
2018-07-20T13:10:42.890Z,7.42
2018-07-20T13:13:10.518Z,8.55
2018-07-20T13:15:38.177Z,10.98
2018-07-20T13:18:05.990Z,8.48
2018-07-20T13:20:33.716Z,7.75
2018-07-20T13:23:01.412Z,6.65
2018-07-20T13:25:29.474Z,6.35
2018-07-20T13:27:57.139Z,7.40
2018-07-20T13:30:24.809Z,5.67
2018-07-20T13:32:52.487Z,9.38
2018-07-20T13:35:20.216Z,12.20
2018-07-20T13:37:47.872Z,6.62
2018-07-20T13:40:15.667Z,6.15
2018-07-20T13:42:43.301Z,6.83
2018-07-20T13:45:10.989Z,7.62
2018-07-20T13:47:38.605Z,6.55
2018-07-20T13:50:06.493Z,8.35
2018-07-20T13:52:34.395Z,6.87
2018-07-20T13:55:02.009Z,5.12
2018-07-20T13:57:29.717Z,7.15
2018-07-20T13:59:57.381Z,5.67
2018-07-20T14:02:25.020Z,8.83
2018-07-20T14:04:53.704Z,6.00
2018-07-20T14:07:28.189Z,6.25
2018-07-20T14:09:55.852Z,5.72
2018-07-20T14:12:23.577Z,6.15
2018-07-20T14:14:51.273Z,6.05
2018-07-20T14:17:18.908Z,5.40
2018-07-20T14:19:46.585Z,5.12
2018-07-20T14:22:14.219Z,6.10
2018-07-20T14:24:41.855Z,9.50
2018-07-20T14:27:09.483Z,7.45
2018-07-20T14:29:37.140Z,6.45
2018-07-20T14:32:04.946Z,6.75
2018-07-20T14:34:32.628Z,9.70
2018-07-20T14:37:00.324Z,6.08
2018-07-20T14:39:27.958Z,7.70
2018-07-20T14:41:55.738Z,5.92
2018-07-20T14:44:23.377Z,7.05
2018-07-20T14:46:51.039Z,7.15
2018-07-20T14:49:18.704Z,6.00
2018-07-20T14:51:46.337Z,6.62
2018-07-20T14:54:13.968Z,5.92
2018-07-20T14:56:41.580Z,6.45
2018-07-20T14:59:09.276Z,6.60
2018-07-20T15:01:36.956Z,7.05
2018-07-20T15:04:04.642Z,5.90
2018-07-20T15:06:32.298Z,8.73
2018-07-20T15:08:59.915Z,6.65
2018-07-20T15:11:27.614Z,6.70
2018-07-20T15:13:55.428Z,6.85
2018-07-20T15:16:23.108Z,5.28
2018-07-20T15:18:50.817Z,6.15
2018-07-20T15:21:18.525Z,7.78
2018-07-20T15:23:46.166Z,8.03
2018-07-20T15:26:13.822Z,9.45
2018-07-20T15:28:41.487Z,6.90
2018-07-20T15:31:09.231Z,6.33
2018-07-20T15:33:36.906Z,9.45
2018-07-20T15:36:04.910Z,12.75
2018-07-20T15:38:32.517Z,7.08
2018-07-20T15:41:00.190Z,7.72
2018-07-20T15:43:27.962Z,7.12
2018-07-20T15:46:05.770Z,5.85
2018-07-20T15:48:23.323Z,7.03
2018-07-20T15:50:50.978Z,8.93
2018-07-20T15:53:45.833Z,9.15
2018-07-20T15:55:46.344Z,7.42
2018-07-20T15:58:13.990Z,8.63
2018-07-20T16:00:41.667Z,11.20
2018-07-20T16:03:09.365Z,7.72
2018-07-20T16:05:37.089Z,8.45
2018-07-20T16:08:04.725Z,7.90
2018-07-20T16:10:32.372Z,9.20
2018-07-20T16:13:00.070Z,7.60
2018-07-20T16:15:27.844Z,10.70
2018-07-20T16:17:55.589Z,7.15
2018-07-20T16:20:23.252Z,10.55
2018-07-20T16:22:51.072Z,9.03
2018-07-20T16:25:18.695Z,9.10
2018-07-20T16:27:46.337Z,8.83
2018-07-20T16:30:14.019Z,8.05
2018-07-20T16:32:41.709Z,8.55
2018-07-20T16:35:09.363Z,7.90
2018-07-20T16:37:37.008Z,9.00
2018-07-20T16:40:04.793Z,10.75
2018-07-20T16:42:32.372Z,7.35
2018-07-20T16:45:00.127Z,11.60
2018-07-20T16:47:28.678Z,8.08
2018-07-20T16:49:56.328Z,7.78
2018-07-20T16:52:23.974Z,8.78
2018-07-20T16:54:51.670Z,8.35
2018-07-20T16:57:19.321Z,7.97
2018-07-20T16:59:46.987Z,8.70
2018-07-20T17:02:14.702Z,7.20
2018-07-20T17:04:42.367Z,8.48
2018-07-20T17:07:09.980Z,9.58
2018-07-20T17:09:37.628Z,9.03
2018-07-20T17:12:05.652Z,8.40
2018-07-20T17:14:33.291Z,7.78
2018-07-20T17:17:00.956Z,9.73
2018-07-20T17:19:28.704Z,11.50
2018-07-20T17:21:56.329Z,9.30
2018-07-20T17:24:23.989Z,12.05
2018-07-20T17:26:51.644Z,8.90
2018-07-20T17:29:19.273Z,8.48
2018-07-20T17:31:46.942Z,7.63
2018-07-20T17:34:14.599Z,8.63
2018-07-20T17:36:42.300Z,8.73
2018-07-20T17:39:11.532Z,9.63
2018-07-20T17:41:39.241Z,7.60
2018-07-20T17:44:07.720Z,9.90
2018-07-20T17:46:35.443Z,10.50
2018-07-20T17:49:03.256Z,9.33
2018-07-20T17:51:30.881Z,8.60
2018-07-20T17:53:58.572Z,8.37
2018-07-20T17:56:27.212Z,10.00
2018-07-20T17:58:54.805Z,7.07
2018-07-20T18:01:22.551Z,9.53
2018-07-20T18:03:50.171Z,7.30
2018-07-20T18:06:17.835Z,6.77
2018-07-20T18:08:45.514Z,9.87
2018-07-20T18:11:13.168Z,6.57
2018-07-20T18:13:40.877Z,8.30
2018-07-20T18:16:08.506Z,9.10
2018-07-20T18:18:36.113Z,8.33
2018-07-20T18:21:03.780Z,7.97
2018-07-20T18:23:31.405Z,7.77
2018-07-20T18:25:59.119Z,7.17
2018-07-20T18:28:26.996Z,7.97
2018-07-20T18:30:54.678Z,7.60
2018-07-20T18:33:22.478Z,9.17
2018-07-20T18:35:50.154Z,5.87
2018-07-20T18:38:17.848Z,7.17
2018-07-20T18:40:45.548Z,8.07
2018-07-20T18:43:13.212Z,9.60
2018-07-20T18:45:40.996Z,10.07
2018-07-20T18:48:08.792Z,6.37
2018-07-20T18:50:36.343Z,6.07
2018-07-20T18:53:04.058Z,10.67
2018-07-20T18:55:31.635Z,5.13
2018-07-20T18:57:59.360Z,7.23
2018-07-20T19:00:27.144Z,5.47
2018-07-20T19:02:54.864Z,10.77
2018-07-20T19:05:22.879Z,6.43
2018-07-20T19:07:50.654Z,6.43
2018-07-20T19:10:18.376Z,5.20
2018-07-20T19:12:46.453Z,6.97
2018-07-20T19:15:14.106Z,6.20
2018-07-20T19:17:42.000Z,8.20
2018-07-20T19:20:09.763Z,6.90
2018-07-20T19:22:37.395Z,5.13
2018-07-20T19:25:05.176Z,7.77
2018-07-20T19:27:32.871Z,6.80
2018-07-20T19:30:00.508Z,5.90
2018-07-20T19:32:28.209Z,6.53
2018-07-20T19:34:55.861Z,8.43
2018-07-20T19:37:23.574Z,9.23
2018-07-20T19:39:51.329Z,5.27
2018-07-20T19:42:19.188Z,8.20
2018-07-20T19:44:46.879Z,4.43
2018-07-20T19:47:14.529Z,4.33
2018-07-20T19:49:42.309Z,5.93
2018-07-20T19:52:09.939Z,5.13
2018-07-20T19:54:37.577Z,6.27
2018-07-20T19:57:05.596Z,4.33
2018-07-20T19:59:33.480Z,5.07
2018-07-20T20:02:01.133Z,6.33
2018-07-20T20:04:29.070Z,5.00
2018-07-20T20:06:57.004Z,6.87
2018-07-20T20:09:24.664Z,6.57
2018-07-20T20:11:52.336Z,6.93
2018-07-20T20:14:20.047Z,6.50
2018-07-20T20:16:47.733Z,4.53
2018-07-20T20:19:15.369Z,6.67
2018-07-20T20:21:43.051Z,4.80
2018-07-20T20:24:10.692Z,4.03
2018-07-20T20:26:38.459Z,5.70
2018-07-20T20:29:06.180Z,6.90
2018-07-20T20:31:34.079Z,5.23
2018-07-20T20:34:01.777Z,5.60
2018-07-20T20:36:29.516Z,5.70
2018-07-20T20:38:57.155Z,6.30
2018-07-20T20:41:24.893Z,8.87
2018-07-20T20:43:52.547Z,7.53
2018-07-20T20:46:20.173Z,9.70
2018-07-20T20:48:47.947Z,9.77
2018-07-20T20:51:15.572Z,10.27
2018-07-20T20:53:43.290Z,11.40
2018-07-20T20:56:10.853Z,12.83
2018-07-20T20:58:38.475Z,11.83
2018-07-20T21:01:06.279Z,15.60
2018-07-20T21:03:40.400Z,11.37
2018-07-20T21:06:08.099Z,17.70
2018-07-20T21:08:37.723Z,15.23
2018-07-20T21:11:05.581Z,11.30
2018-07-20T21:13:33.248Z,6.87
2018-07-20T21:16:00.919Z,16.33
2018-07-20T21:18:28.668Z,9.13
2018-07-20T21:20:56.280Z,11.43
2018-07-20T21:23:23.938Z,8.20
2018-07-20T21:25:51.662Z,9.23
2018-07-20T21:28:19.331Z,11.47
2018-07-20T21:30:46.995Z,9.23
2018-07-20T21:33:14.620Z,15.10
2018-07-20T21:35:42.285Z,13.17
2018-07-20T21:38:09.944Z,9.77
2018-07-20T21:40:37.752Z,12.33
2018-07-20T21:43:05.589Z,10.93
2018-07-20T21:45:33.372Z,12.93
2018-07-20T21:48:01.073Z,9.07
2018-07-20T21:50:28.878Z,13.10
2018-07-20T21:52:56.686Z,13.43
2018-07-20T21:55:24.444Z,9.53
2018-07-20T21:57:52.152Z,10.80
2018-07-20T22:00:20.064Z,8.40
2018-07-20T22:02:48.586Z,10.00
2018-07-20T22:05:16.359Z,8.33
2018-07-20T22:07:44.129Z,8.73
2018-07-20T22:10:11.773Z,7.27
2018-07-20T22:12:39.483Z,12.50
2018-07-20T22:15:08.113Z,8.60
2018-07-20T22:17:35.757Z,7.07
2018-07-20T22:20:04.513Z,11.73
2018-07-20T22:22:32.649Z,8.23
2018-07-20T22:25:00.270Z,12.43
2018-07-20T22:27:27.902Z,7.87
2018-07-20T22:29:55.566Z,7.87
2018-07-20T22:32:23.186Z,7.70
2018-07-20T22:34:50.869Z,10.33
2018-07-20T22:37:18.517Z,6.33
2018-07-20T22:39:46.185Z,8.30
2018-07-20T22:42:13.801Z,5.53
2018-07-20T22:44:41.819Z,6.47
2018-07-20T22:47:09.431Z,8.77
2018-07-20T22:49:37.021Z,10.67
2018-07-20T22:52:04.732Z,11.87
2018-07-20T22:54:32.340Z,10.80
2018-07-20T22:57:00.169Z,14.40
2018-07-20T22:59:27.827Z,8.03
2018-07-20T23:01:55.519Z,14.00
2018-07-20T23:04:23.205Z,11.07
2018-07-20T23:06:50.840Z,11.97
2018-07-20T23:09:18.469Z,8.70
2018-07-20T23:11:46.144Z,12.23
2018-07-20T23:14:13.759Z,13.90
2018-07-20T23:16:41.389Z,8.73
2018-07-20T23:19:09.151Z,12.33
2018-07-20T23:21:36.811Z,14.47
2018-07-20T23:24:04.523Z,9.17
2018-07-20T23:26:32.145Z,9.40
2018-07-20T23:28:59.835Z,13.70
2018-07-20T23:31:27.455Z,13.30
2018-07-20T23:33:55.137Z,12.57
2018-07-20T23:36:22.825Z,14.97
2018-07-20T23:38:50.515Z,14.13
2018-07-20T23:41:18.195Z,12.77
2018-07-20T23:43:45.814Z,12.57
2018-07-20T23:46:13.453Z,8.27
2018-07-20T23:48:41.125Z,13.83
2018-07-20T23:51:08.764Z,11.37
2018-07-20T23:53:36.428Z,13.30
2018-07-20T23:56:04.427Z,15.33
2018-07-20T23:58:32.055Z,15.63
